Terminal Aerodrome Forecast
Issued by NWS Wilmington, OH

Current Version | Previous Version | Graphics & Text | Print | Product List | Glossary On
Versions: 1 2 3 4 5 6 7 8 9 10 11 12 13 14 15 16 17 18 19 20
000
FTUS41 KILN 162100 AAA
TAFDAY
TAF AMD
KDAY 162101Z 1621/1718 36004KT P6SM OVC035
     FM170000 VRB03KT P6SM BKN035
     FM170800 VRB03KT 4SM BR SCT035
     FM171300 VRB03KT P6SM SCT015
     FM171500 25005KT P6SM BKN035=

USA.gov is the U.S. government's official web portal to all federal, state and local government web resources and services.